createdAt,value
2023-10-26T00:01:33.486Z,20.87
2023-10-26T00:04:02.001Z,22.20
2023-10-26T00:06:30.420Z,20.53
2023-10-26T00:09:00.051Z,21.20
2023-10-26T00:11:28.340Z,18.23
2023-10-26T00:13:56.569Z,20.30
2023-10-26T00:16:24.813Z,23.03
2023-10-26T00:18:53.156Z,21.13
2023-10-26T00:21:22.217Z,19.00
2023-10-26T00:23:50.621Z,18.87
2023-10-26T00:26:20.397Z,18.57
2023-10-26T00:28:51.532Z,18.90
2023-10-26T00:31:19.958Z,23.00
2023-10-26T00:33:48.394Z,16.33
2023-10-26T00:36:16.968Z,19.27
2023-10-26T00:38:45.259Z,19.53
2023-10-26T00:41:14.309Z,14.70
2023-10-26T00:43:43.929Z,17.30
2023-10-26T00:46:12.817Z,19.00
2023-10-26T00:48:41.812Z,21.00
2023-10-26T00:51:10.564Z,21.13
2023-10-26T00:53:41.545Z,18.53
2023-10-26T00:56:13.062Z,16.27
2023-10-26T00:58:43.635Z,17.87
2023-10-26T01:01:12.320Z,16.03
2023-10-26T01:03:41.929Z,17.03
2023-10-26T01:06:10.681Z,17.00
2023-10-26T01:08:39.273Z,21.87
2023-10-26T01:11:08.320Z,19.17
2023-10-26T01:13:38.172Z,20.07
2023-10-26T01:16:09.235Z,17.83
2023-10-26T01:18:37.644Z,16.60
2023-10-26T01:21:06.610Z,23.97
2023-10-26T01:23:36.233Z,24.83
2023-10-26T01:26:04.630Z,20.97
2023-10-26T01:28:31.871Z,23.80
2023-10-26T01:31:00.244Z,22.57
2023-10-26T01:33:29.001Z,23.77
2023-10-26T01:35:57.363Z,23.20
2023-10-26T01:38:25.794Z,23.73
2023-10-26T01:40:55.431Z,22.93
2023-10-26T01:43:25.747Z,24.40
2023-10-26T01:45:54.069Z,26.20
2023-10-26T01:48:22.354Z,24.00
2023-10-26T01:50:50.769Z,29.60
2023-10-26T01:53:19.337Z,22.57
2023-10-26T01:55:47.551Z,24.00
2023-10-26T01:58:17.142Z,22.67
2023-10-26T02:00:45.565Z,23.23
2023-10-26T02:03:14.130Z,24.90
2023-10-26T02:05:42.511Z,28.57
2023-10-26T02:08:10.757Z,22.43
2023-10-26T02:10:39.151Z,23.70
2023-10-26T02:13:07.345Z,22.60
2023-10-26T02:15:37.035Z,24.70
2023-10-26T02:18:05.876Z,23.87
2023-10-26T02:20:34.207Z,31.13
2023-10-26T02:23:03.882Z,28.37
2023-10-26T02:25:32.347Z,27.57
2023-10-26T02:28:00.615Z,28.70
2023-10-26T02:30:28.888Z,30.50
2023-10-26T02:32:58.684Z,26.67
2023-10-26T02:35:27.055Z,21.40
2023-10-26T02:37:55.425Z,24.73
2023-10-26T02:40:23.883Z,21.57
2023-10-26T02:42:53.355Z,26.10
2023-10-26T02:45:21.977Z,23.90
2023-10-26T02:47:51.317Z,27.47
2023-10-26T02:50:21.062Z,29.93
2023-10-26T02:52:49.490Z,25.83
2023-10-26T02:55:17.980Z,28.43
2023-10-26T02:57:47.217Z,29.57
2023-10-26T03:00:17.660Z,24.53
2023-10-26T03:02:46.126Z,23.30
2023-10-26T03:05:14.453Z,27.57
2023-10-26T03:07:46.654Z,24.77
2023-10-26T03:10:15.271Z,26.57
2023-10-26T03:12:46.809Z,26.27
2023-10-26T03:15:15.266Z,26.00
2023-10-26T03:17:44.886Z,27.00
2023-10-26T03:20:14.159Z,27.30
2023-10-26T03:22:43.759Z,28.10
2023-10-26T03:25:15.444Z,27.43
2023-10-26T03:27:43.755Z,28.33
2023-10-26T03:30:12.721Z,34.70
2023-10-26T03:32:41.085Z,25.10
2023-10-26T03:35:10.587Z,24.30
2023-10-26T03:37:39.306Z,25.23
2023-10-26T03:40:11.673Z,23.87
2023-10-26T03:42:39.977Z,25.10
2023-10-26T03:45:12.281Z,28.37
2023-10-26T03:47:41.174Z,28.47
2023-10-26T03:50:10.078Z,31.17
2023-10-26T03:52:39.046Z,25.90
2023-10-26T03:55:09.401Z,31.43
2023-10-26T03:57:37.684Z,34.37
2023-10-26T04:00:06.773Z,26.00
2023-10-26T04:02:40.855Z,30.53
2023-10-26T04:05:09.801Z,26.80
2023-10-26T04:07:39.427Z,29.37
2023-10-26T04:10:10.746Z,24.00
2023-10-26T04:12:39.041Z,29.47
2023-10-26T04:15:09.808Z,25.63
2023-10-26T04:17:38.208Z,26.13
2023-10-26T04:20:08.801Z,30.43
2023-10-26T04:22:40.008Z,27.13
2023-10-26T04:25:10.845Z,24.37
2023-10-26T04:27:39.175Z,25.03
2023-10-26T04:30:08.723Z,27.23
2023-10-26T04:32:37.182Z,30.10
2023-10-26T04:35:06.600Z,26.30
2023-10-26T04:37:34.906Z,26.57
2023-10-26T04:40:04.053Z,31.10
2023-10-26T04:42:33.977Z,38.37
2023-10-26T04:45:02.283Z,27.77
2023-10-26T04:47:30.636Z,32.03
2023-10-26T04:49:58.862Z,33.47
2023-10-26T04:52:27.462Z,35.80
2023-10-26T04:54:55.803Z,40.77
2023-10-26T04:57:23.994Z,38.20
2023-10-26T04:59:53.552Z,37.17
2023-10-26T05:02:22.338Z,46.33
2023-10-26T05:04:50.536Z,38.37
2023-10-26T05:07:18.864Z,34.30
2023-10-26T05:09:47.127Z,37.10
2023-10-26T05:12:15.367Z,33.77
2023-10-26T05:14:43.969Z,31.70
2023-10-26T05:17:13.684Z,39.57
2023-10-26T05:19:41.905Z,31.77
2023-10-26T05:22:10.213Z,35.67
2023-10-26T05:24:40.054Z,33.00
2023-10-26T05:27:08.335Z,37.43
2023-10-26T05:29:36.645Z,36.10
2023-10-26T05:32:05.276Z,35.97
2023-10-26T05:34:34.914Z,30.17
2023-10-26T05:37:03.212Z,37.13
2023-10-26T05:39:34.039Z,31.13
2023-10-26T05:42:05.347Z,28.10
2023-10-26T05:44:33.821Z,37.57
2023-10-26T05:47:02.057Z,38.37
2023-10-26T05:49:30.316Z,30.90
2023-10-26T05:52:02.045Z,37.27
2023-10-26T05:54:30.609Z,32.90
2023-10-26T05:56:58.945Z,36.03
2023-10-26T05:59:27.592Z,35.80
2023-10-26T06:01:56.080Z,44.80
2023-10-26T06:04:24.391Z,43.17
2023-10-26T06:06:52.626Z,45.30
2023-10-26T06:09:22.388Z,44.63
2023-10-26T06:11:50.717Z,41.67
2023-10-26T06:14:18.994Z,38.47
2023-10-26T06:16:47.522Z,37.87
2023-10-26T06:19:15.795Z,36.17
2023-10-26T06:21:44.011Z,44.03
2023-10-26T06:24:12.343Z,44.63
2023-10-26T06:26:41.991Z,39.17
2023-10-26T06:29:10.265Z,49.00
2023-10-26T06:31:38.597Z,46.60
2023-10-26T06:34:06.872Z,46.83
2023-10-26T06:36:35.163Z,41.07
2023-10-26T06:39:03.535Z,42.47
2023-10-26T06:41:31.849Z,39.37
2023-10-26T06:44:01.491Z,45.70
2023-10-26T06:46:29.901Z,42.60
2023-10-26T06:48:58.153Z,40.20
2023-10-26T06:51:26.443Z,34.83
2023-10-26T06:53:54.838Z,42.77
2023-10-26T06:56:23.102Z,36.23
2023-10-26T06:58:51.378Z,36.47
2023-10-26T07:01:21.263Z,31.57
2023-10-26T07:03:51.459Z,38.30
2023-10-26T07:06:20.110Z,39.00
2023-10-26T07:08:53.916Z,38.07
2023-10-26T07:11:24.810Z,42.33
2023-10-26T07:13:53.065Z,36.47
2023-10-26T07:16:24.103Z,41.63
2023-10-26T07:18:52.617Z,36.73
2023-10-26T07:21:23.100Z,34.43
2023-10-26T07:23:51.396Z,46.50
2023-10-26T07:26:20.028Z,37.37
2023-10-26T07:28:48.371Z,44.83
2023-10-26T07:31:21.762Z,35.70
2023-10-26T07:33:51.979Z,37.87
2023-10-26T07:36:20.458Z,37.40
2023-10-26T07:39:46.970Z,34.50
2023-10-26T07:42:08.028Z,33.63
2023-10-26T07:44:25.565Z,31.97
2023-10-26T07:46:53.830Z,38.37
2023-10-26T07:49:23.396Z,34.07
2023-10-26T07:51:51.826Z,38.30
2023-10-26T07:54:20.140Z,31.90
2023-10-26T07:56:48.396Z,28.53
2023-10-26T07:59:16.674Z,32.37
2023-10-26T08:01:45.564Z,28.20
2023-10-26T08:04:14.720Z,32.13
2023-10-26T08:06:45.002Z,38.97
2023-10-26T08:09:14.062Z,33.07
2023-10-26T08:11:43.122Z,33.90
2023-10-26T08:16:03.958Z,26.17
2023-10-26T08:17:07.534Z,35.87
2023-10-26T08:19:40.008Z,36.73
2023-10-26T08:22:11.762Z,30.87
2023-10-26T08:24:40.092Z,32.87
2023-10-26T08:27:08.349Z,36.77
2023-10-26T08:29:36.630Z,36.93
2023-10-26T08:32:06.643Z,34.00
2023-10-26T08:34:36.656Z,36.53
2023-10-26T08:39:39.717Z,32.03
2023-10-26T08:42:09.740Z,35.97
2023-10-26T08:44:40.850Z,34.97
2023-10-26T08:47:13.430Z,35.20
2023-10-26T08:49:46.182Z,32.83
2023-10-26T08:52:18.990Z,33.93
2023-10-26T08:54:48.787Z,27.90
2023-10-26T08:57:19.015Z,32.93
2023-10-26T08:59:47.324Z,25.63
2023-10-26T09:02:15.687Z,27.40
2023-10-26T09:05:02.206Z,28.50
2023-10-26T09:07:30.996Z,30.43
2023-10-26T09:10:00.620Z,28.10
2023-10-26T09:12:28.939Z,27.37
2023-10-26T09:15:01.018Z,29.97
2023-10-26T09:17:30.103Z,24.17
2023-10-26T09:19:58.792Z,31.33
2023-10-26T09:22:47.901Z,29.00
2023-10-26T09:25:17.527Z,30.20
2023-10-26T09:27:47.529Z,28.13
2023-10-26T09:30:26.867Z,27.63
2023-10-26T09:32:55.327Z,30.77
2023-10-26T09:35:28.366Z,27.17
2023-10-26T09:37:57.402Z,27.93
2023-10-26T09:40:28.843Z,29.40
2023-10-26T09:42:57.902Z,28.67
2023-10-26T09:45:27.905Z,25.37
2023-10-26T09:47:56.837Z,33.53
2023-10-26T09:50:26.209Z,28.33
2023-10-26T09:52:57.071Z,28.47
2023-10-26T09:55:27.586Z,32.53
2023-10-26T09:58:01.745Z,28.80
2023-10-26T10:00:34.516Z,26.47
2023-10-26T10:03:12.577Z,26.73
2023-10-26T10:05:42.587Z,23.93
2023-10-26T10:08:11.313Z,26.13
2023-10-26T10:11:16.829Z,27.20
2023-10-26T10:13:45.538Z,27.13
2023-10-26T10:16:51.609Z,21.60
2023-10-26T10:19:21.119Z,23.00
2023-10-26T10:21:50.200Z,26.87
2023-10-26T10:24:51.152Z,21.03
2023-10-26T10:27:20.909Z,18.33
2023-10-26T10:29:49.153Z,26.57
2023-10-26T10:32:48.131Z,20.87
2023-10-26T10:35:36.774Z,22.43
2023-10-26T10:38:23.789Z,19.47
2023-10-26T10:41:13.300Z,19.77
2023-10-26T10:43:45.505Z,23.23
2023-10-26T10:46:16.043Z,20.70
2023-10-26T10:49:01.178Z,21.73
2023-10-26T10:51:31.966Z,22.77
2023-10-26T10:54:06.133Z,25.90
2023-10-26T10:56:42.315Z,23.30
2023-10-26T10:59:19.584Z,21.30
2023-10-26T11:01:49.197Z,22.93
2023-10-26T11:04:17.635Z,20.40
2023-10-26T11:06:46.734Z,27.00
2023-10-26T11:09:25.689Z,21.70
2023-10-26T11:11:56.270Z,20.00
2023-10-26T11:14:25.980Z,20.73
2023-10-26T11:16:54.462Z,16.80
2023-10-26T11:19:22.716Z,18.83
2023-10-26T11:21:56.719Z,19.53
2023-10-26T11:24:31.573Z,21.63
2023-10-26T11:27:13.876Z,20.10
2023-10-26T11:29:44.208Z,20.90
2023-10-26T11:32:26.416Z,16.33
2023-10-26T11:35:07.143Z,18.53
2023-10-26T11:37:39.645Z,17.70
2023-10-26T11:40:10.057Z,20.13
2023-10-26T11:42:51.675Z,20.03
2023-10-26T11:45:22.939Z,20.03
2023-10-26T11:47:52.966Z,19.33
2023-10-26T11:50:22.871Z,20.77
2023-10-26T11:52:51.987Z,20.03
2023-10-26T11:55:20.893Z,18.37
2023-10-26T11:57:49.770Z,23.27
2023-10-26T12:00:19.625Z,24.63
2023-10-26T12:02:49.436Z,20.67
2023-10-26T12:05:18.989Z,24.57
2023-10-26T12:07:48.138Z,22.90
2023-10-26T12:10:19.376Z,20.33
2023-10-26T12:12:49.850Z,25.07
2023-10-26T12:15:18.900Z,17.90
2023-10-26T12:17:50.120Z,21.87
2023-10-26T12:20:20.243Z,27.83
2023-10-26T12:22:51.256Z,20.07
2023-10-26T12:25:19.588Z,18.77
2023-10-26T12:28:21.837Z,11.90
2023-10-26T12:30:36.608Z,13.00
2023-10-26T12:33:05.084Z,10.60
2023-10-26T12:35:34.716Z,9.37
2023-10-26T12:38:02.980Z,9.50
2023-10-26T12:40:31.247Z,9.93
2023-10-26T12:42:59.971Z,9.77
2023-10-26T12:45:28.389Z,8.97
2023-10-26T12:47:56.922Z,10.80
2023-10-26T12:50:25.252Z,11.23
2023-10-26T12:52:56.076Z,11.47
2023-10-26T12:55:25.092Z,10.33
2023-10-26T12:57:56.397Z,8.53
2023-10-26T13:00:25.511Z,8.20
2023-10-26T13:02:53.777Z,10.03
2023-10-26T13:05:22.085Z,9.33
2023-10-26T13:07:50.334Z,8.33
2023-10-26T13:10:19.985Z,8.17
2023-10-26T13:12:48.923Z,6.70
2023-10-26T13:15:21.218Z,7.27
2023-10-26T13:17:50.341Z,8.77
2023-10-26T13:20:18.881Z,8.30
2023-10-26T13:22:47.141Z,7.57
2023-10-26T13:25:15.527Z,8.53
2023-10-26T13:27:45.281Z,8.93
2023-10-26T13:30:15.580Z,7.67
2023-10-26T13:32:44.205Z,7.30
2023-10-26T13:35:12.931Z,8.13
2023-10-26T13:37:41.209Z,7.27
2023-10-26T13:40:10.765Z,7.23
2023-10-26T13:42:39.117Z,5.27
2023-10-26T13:45:09.465Z,6.20
2023-10-26T13:47:37.732Z,7.60
2023-10-26T13:50:06.776Z,5.67
2023-10-26T13:52:35.004Z,4.33
2023-10-26T13:55:05.073Z,6.10
2023-10-26T13:57:33.446Z,4.67
2023-10-26T14:00:01.707Z,4.17
2023-10-26T14:02:31.526Z,7.00
2023-10-26T14:04:59.795Z,4.47
2023-10-26T14:07:28.160Z,9.83
2023-10-26T14:09:56.436Z,4.50
2023-10-26T14:12:24.898Z,5.30
2023-10-26T14:14:53.140Z,5.07
2023-10-26T14:17:22.176Z,6.77
2023-10-26T14:19:51.893Z,4.77
2023-10-26T14:22:20.137Z,6.20
2023-10-26T14:24:48.887Z,5.87
2023-10-26T14:27:17.205Z,6.17
2023-10-26T14:29:45.444Z,5.37
2023-10-26T14:32:13.627Z,8.43
2023-10-26T14:34:42.008Z,7.40
2023-10-26T14:37:13.031Z,6.03
2023-10-26T14:39:41.476Z,5.77
2023-10-26T14:42:11.631Z,7.73
2023-10-26T14:44:40.540Z,8.57
2023-10-26T14:47:08.812Z,6.23
2023-10-26T14:49:37.421Z,5.60
2023-10-26T14:52:06.170Z,5.50
2023-10-26T14:54:36.863Z,6.93
2023-10-26T14:57:05.675Z,7.47
2023-10-26T14:59:34.819Z,5.47
2023-10-26T15:02:03.045Z,5.13
2023-10-26T15:04:31.237Z,7.23
2023-10-26T15:06:59.676Z,6.53
2023-10-26T15:10:20.603Z,6.47
2023-10-26T15:12:20.363Z,6.13
2023-10-26T15:14:48.781Z,7.10
2023-10-26T15:17:17.559Z,6.93
2023-10-26T15:19:45.861Z,6.77
2023-10-26T15:22:14.312Z,6.87
2023-10-26T15:24:42.789Z,4.77
2023-10-26T15:27:12.402Z,5.57
2023-10-26T15:29:43.354Z,6.37
2023-10-26T15:32:11.975Z,6.23
2023-10-26T15:34:40.262Z,5.30
2023-10-26T15:37:08.657Z,4.73
2023-10-26T15:39:37.029Z,12.07
2023-10-26T15:42:05.952Z,6.53
2023-10-26T15:44:35.186Z,7.03
2023-10-26T15:47:05.355Z,8.47
2023-10-26T15:49:42.044Z,6.63
2023-10-26T15:52:11.805Z,9.23
2023-10-26T15:54:40.444Z,9.50
2023-10-26T15:57:09.320Z,12.13
2023-10-26T15:59:37.771Z,8.30
2023-10-26T16:02:07.705Z,8.27
2023-10-26T16:04:36.442Z,7.70
2023-10-26T16:07:05.111Z,8.00
2023-10-26T16:09:37.433Z,8.83
2023-10-26T16:12:06.965Z,9.90
2023-10-26T16:14:35.288Z,10.57
2023-10-26T16:17:06.431Z,10.13
2023-10-26T16:19:36.391Z,8.50
2023-10-26T16:22:05.088Z,7.03
2023-10-26T16:24:33.393Z,7.23
2023-10-26T16:27:01.832Z,10.10
2023-10-26T16:29:30.129Z,15.60
2023-10-26T16:31:58.362Z,10.77
2023-10-26T16:34:26.687Z,10.80
2023-10-26T16:36:56.368Z,9.40
2023-10-26T16:39:25.289Z,8.50
2023-10-26T16:41:53.556Z,11.90
2023-10-26T16:44:21.768Z,11.87
2023-10-26T16:46:50.507Z,11.93
2023-10-26T16:49:18.991Z,11.20
2023-10-26T16:51:47.237Z,11.37
2023-10-26T16:54:17.177Z,9.40
2023-10-26T16:56:45.442Z,12.97
2023-10-26T16:59:13.714Z,10.03
2023-10-26T17:01:42.055Z,12.13
2023-10-26T17:04:10.409Z,12.37
2023-10-26T17:06:38.694Z,11.23
2023-10-26T17:09:07.132Z,12.83
2023-10-26T17:11:37.289Z,10.53
2023-10-26T17:14:05.796Z,9.40
2023-10-26T17:16:34.187Z,13.07
2023-10-26T17:19:02.644Z,10.97
2023-10-26T17:21:30.937Z,14.03
2023-10-26T17:23:59.234Z,14.80
2023-10-26T17:26:27.469Z,15.40
2023-10-26T17:28:57.966Z,9.63
2023-10-26T17:31:26.370Z,10.03
2023-10-26T17:33:54.614Z,8.33
2023-10-26T17:36:22.924Z,10.87
2023-10-26T17:38:51.173Z,10.43
2023-10-26T17:41:19.562Z,12.97
2023-10-26T17:43:47.969Z,10.27
2023-10-26T17:46:17.813Z,15.90
2023-10-26T17:48:46.179Z,13.53
2023-10-26T17:51:14.518Z,15.23
2023-10-26T17:53:43.161Z,14.70
2023-10-26T17:56:14.335Z,15.33
2023-10-26T17:58:43.142Z,9.70
2023-10-26T18:01:13.384Z,13.43
2023-10-26T18:03:43.579Z,13.77
2023-10-26T18:06:11.904Z,12.40
2023-10-26T18:08:41.119Z,7.70
2023-10-26T18:11:09.684Z,13.80
2023-10-26T18:13:38.726Z,13.40
2023-10-26T18:16:08.746Z,11.97
2023-10-26T18:18:37.857Z,10.43
2023-10-26T18:21:09.300Z,13.97
2023-10-26T18:23:37.968Z,10.73
2023-10-26T18:26:08.267Z,15.43
2023-10-26T18:28:38.129Z,11.10
2023-10-26T18:31:09.479Z,11.37
2023-10-26T18:33:38.605Z,14.53
2023-10-26T18:36:11.889Z,17.73
2023-10-26T18:38:42.488Z,10.80
2023-10-26T18:41:18.028Z,14.63
2023-10-26T18:43:47.304Z,11.37
2023-10-26T18:46:15.655Z,14.20
2023-10-26T18:48:44.040Z,16.23
2023-10-26T18:51:14.184Z,15.67
2023-10-26T18:53:43.136Z,14.03
2023-10-26T18:56:14.724Z,12.03
2023-10-26T18:58:43.151Z,15.60
2023-10-26T19:01:11.481Z,16.47
2023-10-26T19:03:57.419Z,19.30
2023-10-26T19:06:29.480Z,18.33
2023-10-26T19:08:58.008Z,13.03
2023-10-26T19:11:26.332Z,20.77
2023-10-26T19:13:54.697Z,16.33
2023-10-26T19:16:23.375Z,14.13
2023-10-26T19:18:51.853Z,16.83
2023-10-26T19:21:20.147Z,14.17
2023-10-26T19:23:50.175Z,14.83
2023-10-26T19:26:18.507Z,18.60
2023-10-26T19:28:46.774Z,13.90
2023-10-26T19:31:15.219Z,18.77
2023-10-26T19:33:46.282Z,12.90
2023-10-26T19:36:14.815Z,13.10
2023-10-26T19:38:43.125Z,18.23
2023-10-26T19:41:16.675Z,14.73
2023-10-26T19:43:44.968Z,14.90
2023-10-26T19:46:13.967Z,14.83
2023-10-26T19:48:42.454Z,16.10
2023-10-26T19:51:10.747Z,23.27
2023-10-26T19:53:39.000Z,15.60
2023-10-26T19:56:07.912Z,15.80
2023-10-26T19:58:37.867Z,11.50
2023-10-26T20:01:07.699Z,14.83
2023-10-26T20:03:36.073Z,21.53
2023-10-26T20:06:07.921Z,16.03
2023-10-26T20:08:36.988Z,15.87
2023-10-26T20:11:06.481Z,16.47
2023-10-26T20:13:34.858Z,13.40
2023-10-26T20:16:05.045Z,15.20
2023-10-26T20:18:39.849Z,16.97
2023-10-26T20:21:08.488Z,9.43
2023-10-26T20:23:37.173Z,17.03
2023-10-26T20:26:05.722Z,17.47
2023-10-26T20:28:33.989Z,12.00
2023-10-26T20:31:02.249Z,17.57
2023-10-26T20:33:31.995Z,17.23
2023-10-26T20:36:00.268Z,13.90
2023-10-26T20:38:28.625Z,20.53
2023-10-26T20:40:56.900Z,14.30
2023-10-26T20:43:25.224Z,22.73
2023-10-26T20:45:56.891Z,16.63
2023-10-26T20:48:25.552Z,21.77
2023-10-26T20:50:57.247Z,21.00
2023-10-26T20:53:28.878Z,17.23
2023-10-26T20:56:00.866Z,16.70
2023-10-26T20:58:30.267Z,14.27
2023-10-26T21:00:58.734Z,14.70
2023-10-26T21:03:26.998Z,19.00
2023-10-26T21:06:04.170Z,17.30
2023-10-26T21:08:32.626Z,17.40
2023-10-26T21:11:01.078Z,12.93
2023-10-26T21:13:30.038Z,15.90
2023-10-26T21:15:58.771Z,17.23
2023-10-26T21:18:27.287Z,15.07
2023-10-26T21:20:57.087Z,14.50
2023-10-26T21:23:25.304Z,17.57
2023-10-26T21:25:53.607Z,20.20
2023-10-26T21:28:21.940Z,13.90
2023-10-26T21:30:50.690Z,14.73
2023-10-26T21:33:19.017Z,11.90
2023-10-26T21:35:47.630Z,17.83
2023-10-26T21:38:18.191Z,13.87
2023-10-26T21:40:47.826Z,14.60
2023-10-26T21:43:16.205Z,15.30
2023-10-26T21:45:46.158Z,18.67
2023-10-26T21:48:15.340Z,13.93
2023-10-26T21:50:43.551Z,12.77
2023-10-26T21:53:13.112Z,15.27
2023-10-26T21:55:44.001Z,18.13
2023-10-26T21:58:12.445Z,16.13
2023-10-26T22:00:40.669Z,20.07
2023-10-26T22:03:09.048Z,18.80
2023-10-26T22:05:37.363Z,16.50
2023-10-26T22:08:05.884Z,16.47
2023-10-26T22:10:34.183Z,19.83
2023-10-26T22:13:04.232Z,17.70
2023-10-26T22:15:32.628Z,21.03
2023-10-26T22:18:00.979Z,20.77
2023-10-26T22:20:29.367Z,20.73
2023-10-26T22:26:19.562Z,20.60
2023-10-26T22:28:51.829Z,14.47
2023-10-26T22:31:21.880Z,18.73
2023-10-26T22:33:50.948Z,14.43
2023-10-26T22:36:19.671Z,17.63
2023-10-26T22:38:48.454Z,16.50
2023-10-26T22:41:17.877Z,24.10
2023-10-26T22:43:47.006Z,19.63
2023-10-26T22:46:19.841Z,16.40
2023-10-26T22:48:48.893Z,18.47
2023-10-26T22:51:18.001Z,18.20
2023-10-26T22:53:47.276Z,16.77
2023-10-26T22:56:20.536Z,20.10
2023-10-26T22:58:50.687Z,21.20
2023-10-26T23:01:22.623Z,18.33
2023-10-26T23:03:52.885Z,19.37
2023-10-26T23:06:22.631Z,20.83
2023-10-26T23:08:51.563Z,19.07
2023-10-26T23:11:23.276Z,19.57
2023-10-26T23:13:52.595Z,13.53
2023-10-26T23:16:23.445Z,12.33
2023-10-26T23:18:53.436Z,13.47
2023-10-26T23:21:22.306Z,19.90
2023-10-26T23:23:51.691Z,14.20
2023-10-26T23:26:23.121Z,12.47
2023-10-26T23:28:52.014Z,17.67
2023-10-26T23:31:20.806Z,12.13
2023-10-26T23:33:53.154Z,18.33
2023-10-26T23:36:22.060Z,25.47
2023-10-26T23:43:12.096Z,15.53
2023-10-26T23:45:40.954Z,14.77
2023-10-26T23:48:09.191Z,15.13
2023-10-26T23:50:39.803Z,19.47
2023-10-26T23:53:15.407Z,16.43
2023-10-26T23:55:44.607Z,17.70
2023-10-26T23:58:14.379Z,18.27
